Time;durP1;ratioP1;P1;durP2;ratioP2;P2;SDS_P1;SDS_P2;PMS_P1;PMS_P2;Temp;Humidity;BMP_temperature;BMP_pressure;BME280_temperature;BME280_humidity;BME280_pressure;Samples;Min_cycle;Max_cycle;Signal;HPM_P1;HPM_P2
2024/01/24 00:01:28;;;;;;;30.83;12.53;;;0.60;99.90;;;;;;4423085;28;657310;-69
2024/01/24 00:04:15;;;;;;;37.10;13.43;;;0.70;99.90;;;;;;4451177;28;658900;-69
2024/01/24 00:07:02;;;;;;;36.77;13.10;;;0.70;99.90;;;;;;4426264;28;658221;-70
2024/01/24 00:09:50;;;;;;;39.37;13.53;;;0.70;99.90;;;;;;4454500;27;657764;-70
2024/01/24 00:12:37;;;;;;;38.80;13.87;;;0.60;99.90;;;;;;4448938;28;658381;-70
2024/01/24 00:15:25;;;;;;;49.50;18.97;;;0.30;99.90;;;;;;4431804;27;657239;-70
2024/01/24 00:18:12;;;;;;;41.90;17.97;;;0.30;99.90;;;;;;4434932;28;658316;-70
2024/01/24 00:21:00;;;;;;;43.27;15.20;;;0.20;99.90;;;;;;4453917;28;658501;-70
2024/01/24 00:23:47;;;;;;;32.37;13.60;;;0.10;99.90;;;;;;4451578;27;658009;-70
2024/01/24 00:26:37;;;;;;;40.10;13.70;;;0.10;99.90;;;;;;4454236;28;657817;-70
2024/01/24 00:29:24;;;;;;;42.57;14.77;;;0.00;99.90;;;;;;4427292;28;658616;-70
2024/01/24 00:32:13;;;;;;;36.93;13.83;;;0.10;99.90;;;;;;4449078;28;657520;-70
2024/01/24 00:35:00;;;;;;;35.83;13.48;;;0.00;99.90;;;;;;4427257;28;658440;-71
2024/01/24 00:37:47;;;;;;;29.40;12.70;;;0.00;99.90;;;;;;4448847;28;657509;-71
2024/01/24 00:40:34;;;;;;;43.87;13.33;;;-0.10;99.90;;;;;;4459291;27;657802;-71
2024/01/24 00:43:22;;;;;;;38.00;13.70;;;-0.10;99.90;;;;;;4453821;28;657988;-71
2024/01/24 00:46:09;;;;;;;45.90;18.43;;;-0.10;99.90;;;;;;4412927;28;659630;-71
2024/01/24 00:48:58;;;;;;;40.37;15.50;;;-0.20;99.90;;;;;;4443794;28;658843;-71
2024/01/24 00:51:45;;;;;;;36.80;15.10;;;-0.30;99.90;;;;;;4432891;28;659432;-71
2024/01/24 00:54:32;;;;;;;44.63;17.17;;;-0.30;99.90;;;;;;4449086;28;658784;-71
2024/01/24 00:57:19;;;;;;;39.07;15.67;;;-0.30;99.90;;;;;;4441745;28;658901;-70
2024/01/24 01:00:08;;;;;;;37.77;14.47;;;-0.30;99.90;;;;;;4450578;28;658294;-71
2024/01/24 01:02:55;;;;;;;35.53;15.43;;;-0.30;99.90;;;;;;4428661;28;659691;-71
2024/01/24 01:05:44;;;;;;;47.87;17.70;;;-0.30;99.90;;;;;;4438499;28;658391;-70
2024/01/24 01:08:31;;;;;;;47.10;16.87;;;-0.30;99.90;;;;;;4453274;28;657785;-70
2024/01/24 01:11:18;;;;;;;48.33;17.03;;;-0.30;99.90;;;;;;4432368;28;658606;-70
2024/01/24 01:14:05;;;;;;;32.03;15.25;;;-0.30;99.90;;;;;;4455424;28;659372;-70
2024/01/24 01:16:53;;;;;;;41.93;15.20;;;-0.30;99.90;;;;;;4432669;28;659221;-70
2024/01/24 01:19:41;;;;;;;35.67;14.70;;;-0.30;99.90;;;;;;4446943;28;659201;-70
2024/01/24 01:22:29;;;;;;;39.13;15.47;;;-0.40;99.90;;;;;;4429328;28;658646;-70
2024/01/24 01:25:16;;;;;;;36.87;14.60;;;-0.50;99.90;;;;;;4446397;28;658507;-70
2024/01/24 01:28:04;;;;;;;36.22;14.43;;;-0.50;99.90;;;;;;4437380;28;658560;-70
2024/01/24 01:30:51;;;;;;;34.70;14.73;;;-0.50;99.90;;;;;;4449770;28;659253;-70
2024/01/24 01:33:38;;;;;;;32.97;14.20;;;-0.50;99.90;;;;;;4423534;28;659405;-70
2024/01/24 01:36:25;;;;;;;39.00;14.70;;;-0.50;99.90;;;;;;4459174;28;659708;-70
2024/01/24 01:39:14;;;;;;;35.53;13.73;;;-0.50;99.90;;;;;;4435408;28;659424;-70
2024/01/24 01:42:01;;;;;;;36.20;14.03;;;-0.50;99.90;;;;;;4447580;28;658921;-71
2024/01/24 01:44:48;;;;;;;29.10;12.80;;;-0.60;99.90;;;;;;4434089;28;658355;-70
2024/01/24 01:47:36;;;;;;;31.92;13.40;;;-0.60;99.90;;;;;;4455817;28;658779;-71
2024/01/24 01:50:23;;;;;;;26.33;10.97;;;-0.40;99.90;;;;;;4422271;28;659264;-70
2024/01/24 01:53:10;;;;;;;30.30;12.70;;;-0.40;99.90;;;;;;4437145;28;659598;-71
2024/01/24 01:55:59;;;;;;;28.13;11.50;;;-0.40;99.90;;;;;;4429544;28;658981;-70
2024/01/24 01:58:46;;;;;;;27.20;8.73;;;-0.40;99.90;;;;;;4448858;28;658362;-70
2024/01/24 02:01:33;;;;;;;27.80;10.57;;;-0.30;99.90;;;;;;4436168;28;657699;-71
2024/01/24 02:04:20;;;;;;;33.77;11.63;;;-0.20;99.90;;;;;;4450800;28;659074;-71
2024/01/24 02:07:08;;;;;;;32.90;10.87;;;-0.20;99.90;;;;;;4429839;28;658340;-70
2024/01/24 02:09:55;;;;;;;24.40;10.53;;;-0.30;99.90;;;;;;4445062;28;659718;-71
2024/01/24 02:12:44;;;;;;;32.90;10.43;;;-0.30;99.90;;;;;;4433945;28;658840;-70
2024/01/24 02:15:31;;;;;;;27.77;10.10;;;-0.30;99.90;;;;;;4449991;28;659048;-70
2024/01/24 02:18:18;;;;;;;32.97;9.13;;;-0.30;99.90;;;;;;4429651;28;660021;-70
2024/01/24 02:21:06;;;;;;;33.83;9.83;;;-0.20;99.90;;;;;;4454222;28;658031;-71
2024/01/24 02:23:53;;;;;;;32.65;9.80;;;-0.10;99.90;;;;;;4418645;27;657586;-71
2024/01/24 02:26:42;;;;;;;24.40;10.07;;;-0.20;99.90;;;;;;4458928;28;657996;-71
2024/01/24 02:29:29;;;;;;;28.37;9.40;;;-0.10;99.90;;;;;;4436517;27;659083;-71
2024/01/24 02:32:16;;;;;;;32.83;10.97;;;-0.10;99.90;;;;;;4454312;28;657953;-71
2024/01/24 02:35:04;;;;;;;27.37;10.77;;;-0.20;99.90;;;;;;4430319;28;659168;-70
2024/01/24 02:37:51;;;;;;;30.13;11.10;;;-0.20;99.90;;;;;;4459391;27;659085;-71
2024/01/24 02:40:38;;;;;;;26.33;9.77;;;-0.20;99.90;;;;;;4437496;28;659506;-70
2024/01/24 02:43:27;;;;;;;21.53;7.97;;;-0.30;99.90;;;;;;4450746;28;658829;-71
2024/01/24 02:46:14;;;;;;;34.47;9.40;;;-0.20;99.90;;;;;;4413222;28;658168;-70
2024/01/24 02:49:01;;;;;;;30.60;9.73;;;-0.30;99.90;;;;;;4463305;27;657106;-71
2024/01/24 02:51:48;;;;;;;25.07;8.90;;;-0.30;99.90;;;;;;4429523;28;657763;-70
2024/01/24 02:54:37;;;;;;;30.07;9.10;;;-0.20;99.90;;;;;;4455273;28;658510;-71
2024/01/24 02:57:24;;;;;;;30.60;8.83;;;-0.30;99.90;;;;;;4428109;28;658021;-70
2024/01/24 03:00:13;;;;;;;20.67;8.07;;;-0.20;99.90;;;;;;4454318;27;657332;-70
2024/01/24 03:03:01;;;;;;;19.67;7.20;;;-0.20;99.90;;;;;;4438109;28;659681;-71
2024/01/24 03:05:48;;;;;;;25.90;6.57;;;-0.10;99.90;;;;;;4425693;27;657532;-70
2024/01/24 03:08:47;;;;;;;18.60;7.30;;;-0.10;99.90;;;;;;4457090;28;658855;-71
2024/01/24 03:11:34;;;;;;;21.77;7.50;;;-0.10;99.90;;;;;;4430602;27;658120;-71
2024/01/24 03:14:21;;;;;;;15.93;6.23;;;0.00;99.90;;;;;;4463166;27;657714;-70
2024/01/24 03:17:10;;;;;;;20.50;7.27;;;0.20;99.90;;;;;;4430467;28;656810;-70
2024/01/24 03:19:58;;;;;;;19.33;5.17;;;0.30;99.90;;;;;;4446256;28;656313;-70
2024/01/24 03:22:45;;;;;;;20.33;5.60;;;0.60;99.90;;;;;;4456824;28;657410;-70
2024/01/24 03:25:32;;;;;;;16.63;4.60;;;0.70;99.90;;;;;;4442591;28;656772;-71
2024/01/24 03:28:20;;;;;;;19.97;5.80;;;0.80;99.90;;;;;;4456591;28;657521;-70
2024/01/24 03:31:07;;;;;;;16.60;5.83;;;0.80;99.90;;;;;;4450673;28;658591;-71
2024/01/24 03:33:56;;;;;;;16.98;5.70;;;0.70;99.90;;;;;;4449531;28;656514;-71
2024/01/24 03:36:44;;;;;;;18.60;5.30;;;0.60;99.90;;;;;;4432472;27;656464;-70
2024/01/24 03:39:31;;;;;;;16.33;5.47;;;0.60;99.90;;;;;;4457202;28;657148;-70
2024/01/24 03:42:18;;;;;;;14.00;4.70;;;0.80;99.90;;;;;;4429031;28;656790;-71
2024/01/24 03:45:06;;;;;;;14.90;5.07;;;0.80;99.90;;;;;;4444664;28;657686;-71
2024/01/24 03:47:53;;;;;;;15.70;4.37;;;0.90;99.90;;;;;;4433634;28;656394;-71
2024/01/24 03:50:42;;;;;;;17.30;5.13;;;0.90;99.90;;;;;;4454717;28;657151;-71
2024/01/24 03:53:29;;;;;;;12.77;4.90;;;1.00;99.90;;;;;;4437128;28;656695;-71
2024/01/24 03:56:16;;;;;;;16.53;5.43;;;1.10;99.90;;;;;;4457134;28;656509;-70
2024/01/24 03:59:03;;;;;;;16.10;5.27;;;1.00;99.90;;;;;;4419541;27;656466;-71
2024/01/24 04:01:50;;;;;;;14.63;5.70;;;0.90;99.90;;;;;;4455531;28;657604;-71
2024/01/24 04:04:38;;;;;;;20.17;6.23;;;0.90;99.90;;;;;;4440623;28;657051;-71
2024/01/24 04:07:26;;;;;;;14.63;5.50;;;0.80;99.90;;;;;;4457452;28;657600;-71
2024/01/24 04:10:13;;;;;;;24.00;6.07;;;0.80;99.90;;;;;;4440503;28;656428;-71
2024/01/24 04:13:01;;;;;;;20.33;5.87;;;0.90;99.90;;;;;;4450304;28;657254;-70
2024/01/24 04:15:48;;;;;;;17.73;5.30;;;0.90;99.90;;;;;;4432614;28;656747;-71
2024/01/24 04:18:35;;;;;;;13.60;5.40;;;1.00;99.90;;;;;;4447279;28;657115;-71
2024/01/24 04:21:22;;;;;;;22.20;4.73;;;1.10;99.90;;;;;;4453954;28;656994;-71
2024/01/24 04:24:11;;;;;;;13.63;4.90;;;1.20;99.90;;;;;;4445846;28;656348;-71
2024/01/24 04:26:58;;;;;;;14.67;3.80;;;1.20;99.90;;;;;;4435862;28;656767;-71
2024/01/24 04:29:45;;;;;;;14.00;5.57;;;1.40;99.90;;;;;;4459189;27;656792;-71
2024/01/24 04:32:33;;;;;;;13.60;5.15;;;1.20;99.90;;;;;;4435199;28;656964;-71
2024/01/24 04:35:20;;;;;;;17.37;5.57;;;1.20;99.90;;;;;;4463096;28;656662;-71
2024/01/24 04:38:08;;;;;;;19.37;6.13;;;1.20;99.90;;;;;;4421081;27;656944;-71
2024/01/24 04:40:56;;;;;;;22.63;6.07;;;1.20;99.90;;;;;;4454987;28;656704;-71
2024/01/24 04:43:44;;;;;;;18.20;4.87;;;1.20;99.90;;;;;;4435645;28;656358;-71
2024/01/24 04:46:31;;;;;;;17.87;4.77;;;1.40;99.90;;;;;;4455182;28;657802;-71
2024/01/24 04:49:18;;;;;;;12.13;4.43;;;1.60;99.90;;;;;;4423235;28;656781;-71
2024/01/24 04:52:06;;;;;;;18.60;4.93;;;1.60;99.90;;;;;;4449845;28;656899;-71
2024/01/24 04:54:53;;;;;;;12.93;3.83;;;1.80;99.90;;;;;;4431840;28;656228;-71
2024/01/24 04:57:41;;;;;;;17.77;4.10;;;1.90;99.90;;;;;;4463498;28;657076;-71
2024/01/24 05:00:29;;;;;;;10.50;3.67;;;2.10;99.90;;;;;;4432728;28;657349;-71
2024/01/24 05:03:16;;;;;;;19.03;3.33;;;2.20;99.90;;;;;;4457749;28;657259;-71
2024/01/24 05:06:03;;;;;;;13.97;4.40;;;2.30;99.90;;;;;;4429507;28;657117;-70
2024/01/24 05:08:51;;;;;;;20.40;4.82;;;2.30;99.90;;;;;;4449914;28;656776;-71
2024/01/24 05:11:40;;;;;;;12.87;3.87;;;2.30;99.90;;;;;;4437647;28;656520;-71
2024/01/24 05:14:29;;;;;;;15.17;3.03;;;2.30;99.90;;;;;;4426564;28;656505;-71
2024/01/24 05:17:16;;;;;;;14.80;4.30;;;2.40;99.90;;;;;;4457709;28;656549;-71
2024/01/24 05:20:06;;;;;;;20.30;4.20;;;2.50;99.90;;;;;;4414963;28;657094;-71
2024/01/24 05:22:53;;;;;;;10.50;3.23;;;2.60;99.90;;;;;;4432251;28;656339;-72
2024/01/24 05:25:42;;;;;;;10.83;3.33;;;2.70;99.90;;;;;;4454292;28;658168;-71
2024/01/24 05:28:29;;;;;;;10.57;3.43;;;2.90;99.90;;;;;;4433203;28;657642;-71
2024/01/24 05:31:19;;;;;;;13.77;4.03;;;2.90;99.90;;;;;;4431581;28;657074;-71
2024/01/24 05:34:08;;;;;;;8.97;2.90;;;3.00;99.90;;;;;;4457843;28;656176;-71
2024/01/24 05:36:55;;;;;;;12.67;2.93;;;3.00;99.90;;;;;;4428524;28;655994;-71
2024/01/24 05:39:42;;;;;;;17.20;3.90;;;3.00;99.90;;;;;;4446451;28;656244;-70
2024/01/24 05:42:30;;;;;;;13.40;3.60;;;3.10;99.90;;;;;;4465414;28;656899;-71
2024/01/24 05:45:17;;;;;;;14.87;4.10;;;3.10;99.90;;;;;;4442966;28;656444;-70
2024/01/24 05:48:06;;;;;;;14.17;3.57;;;3.00;99.90;;;;;;4436204;28;657161;-71
2024/01/24 05:50:53;;;;;;;14.50;3.53;;;3.10;99.90;;;;;;4426794;27;656738;-71
2024/01/24 05:53:42;;;;;;;10.67;1.93;;;3.10;99.90;;;;;;4461677;28;656829;-70
2024/01/24 05:56:29;;;;;;;15.13;2.30;;;3.20;99.90;;;;;;4435357;28;656990;-70
2024/01/24 05:59:16;;;;;;;7.07;2.20;;;3.30;99.90;;;;;;4453432;28;656530;-70
2024/01/24 06:02:03;;;;;;;6.27;1.90;;;3.30;99.90;;;;;;4426743;28;655138;-70
2024/01/24 06:04:52;;;;;;;11.13;2.63;;;3.40;99.90;;;;;;4445706;28;656890;-69
2024/01/24 06:07:40;;;;;;;9.10;2.57;;;3.50;99.90;;;;;;4437491;28;657611;-70
2024/01/24 06:10:27;;;;;;;6.73;2.93;;;3.40;99.90;;;;;;4461908;27;655208;-69
2024/01/24 06:13:14;;;;;;;8.10;1.77;;;3.40;99.90;;;;;;4435242;28;656748;-69
2024/01/24 06:16:01;;;;;;;12.00;3.50;;;3.40;99.90;;;;;;4463941;28;656454;-69
2024/01/24 06:18:49;;;;;;;5.33;1.60;;;3.40;99.90;;;;;;4433339;28;656797;-69
2024/01/24 06:21:37;;;;;;;10.53;3.00;;;3.30;99.90;;;;;;4452847;28;655732;-68
2024/01/24 06:24:24;;;;;;;11.83;2.93;;;3.30;99.90;;;;;;4431498;28;657666;-69
2024/01/24 06:27:11;;;;;;;6.07;2.40;;;3.20;99.90;;;;;;4453436;28;656975;-70
2024/01/24 06:29:59;;;;;;;10.70;3.00;;;3.30;99.90;;;;;;4435575;27;655640;-71
2024/01/24 06:32:46;;;;;;;12.23;3.23;;;3.30;99.90;;;;;;4452363;28;656635;-71
2024/01/24 06:35:34;;;;;;;8.63;2.90;;;3.20;99.90;;;;;;4433727;28;656343;-71
2024/01/24 06:38:22;;;;;;;5.90;2.17;;;3.20;99.90;;;;;;4454986;28;655976;-71
2024/01/24 06:41:11;;;;;;;9.60;2.60;;;3.20;99.90;;;;;;4423486;28;656067;-70
2024/01/24 06:43:58;;;;;;;6.07;2.53;;;3.20;99.90;;;;;;4430997;28;655914;-71
2024/01/24 06:46:46;;;;;;;12.00;1.27;;;3.20;99.90;;;;;;4460732;28;656537;-71
2024/01/24 06:49:33;;;;;;;9.77;2.57;;;3.20;99.90;;;;;;4434398;28;656818;-71
2024/01/24 06:52:20;;;;;;;3.40;1.23;;;3.20;99.90;;;;;;4460416;28;655308;-71
2024/01/24 06:55:09;;;;;;;7.40;2.27;;;3.20;99.90;;;;;;4449964;28;655461;-71
2024/01/24 06:57:56;;;;;;;4.07;2.23;;;3.20;99.90;;;;;;4452866;28;654908;-70
2024/01/24 07:00:44;;;;;;;7.73;3.90;;;3.20;99.90;;;;;;4425563;28;655807;-71
2024/01/24 07:03:31;;;;;;;1.70;1.07;;;3.20;99.90;;;;;;4455691;28;656859;-71
2024/01/24 07:06:18;;;;;;;15.63;2.73;;;3.20;99.90;;;;;;4422869;28;655613;-71
2024/01/24 07:09:05;;;;;;;3.70;2.10;;;3.20;99.90;;;;;;4457432;27;656396;-70
2024/01/24 07:11:54;;;;;;;4.50;1.77;;;3.20;99.90;;;;;;4435559;28;655646;-71
2024/01/24 07:14:41;;;;;;;5.23;2.57;;;3.20;99.90;;;;;;4457380;28;655986;-70
2024/01/24 07:17:28;;;;;;;6.40;2.40;;;3.20;99.90;;;;;;4433554;27;656550;-71
2024/01/24 07:20:18;;;;;;;10.40;3.43;;;3.10;99.90;;;;;;4440541;28;655923;-70
2024/01/24 07:23:05;;;;;;;8.60;3.57;;;3.20;99.90;;;;;;4424040;28;657095;-70
2024/01/24 07:25:52;;;;;;;8.07;3.53;;;3.20;99.90;;;;;;4451992;28;655739;-71
2024/01/24 07:28:41;;;;;;;10.00;3.67;;;3.10;99.90;;;;;;4465038;28;656181;-70
2024/01/24 07:31:28;;;;;;;12.30;4.57;;;3.20;99.90;;;;;;4441141;28;656822;-70
2024/01/24 07:34:16;;;;;;;10.13;2.87;;;3.30;99.90;;;;;;4459449;28;657728;-70
2024/01/24 07:37:03;;;;;;;6.13;2.17;;;3.30;99.90;;;;;;4437625;28;656106;-70
2024/01/24 07:39:51;;;;;;;6.57;2.58;;;3.30;99.90;;;;;;4455396;28;656574;-70
2024/01/24 07:42:38;;;;;;;11.40;3.80;;;3.40;99.90;;;;;;4428143;28;655928;-70
2024/01/24 07:45:27;;;;;;;8.87;3.00;;;3.40;99.90;;;;;;4454194;28;657465;-70
2024/01/24 07:48:15;;;;;;;6.60;1.97;;;3.40;99.90;;;;;;4444354;28;655861;-70
2024/01/24 07:51:03;;;;;;;4.33;1.97;;;3.40;99.90;;;;;;4438023;28;655887;-70
2024/01/24 07:53:50;;;;;;;3.90;1.43;;;3.60;99.90;;;;;;4461938;28;657083;-70
2024/01/24 07:56:37;;;;;;;3.67;1.97;;;3.60;99.90;;;;;;4420473;28;655467;-70
2024/01/24 07:59:25;;;;;;;3.80;2.03;;;3.60;99.90;;;;;;4459605;28;655328;-70
2024/01/24 08:02:14;;;;;;;3.90;2.13;;;3.70;99.90;;;;;;4461641;28;655739;-70
2024/01/24 08:05:01;;;;;;;5.17;3.00;;;3.70;99.90;;;;;;4433452;28;656017;-70
2024/01/24 08:07:48;;;;;;;8.43;2.50;;;3.60;99.90;;;;;;4427435;28;656123;-70
2024/01/24 08:10:35;;;;;;;6.27;2.77;;;3.70;99.90;;;;;;4454588;28;656465;-70
2024/01/24 08:13:22;;;;;;;4.07;2.53;;;3.80;99.90;;;;;;4430651;28;655380;-71
2024/01/24 08:16:10;;;;;;;7.07;3.53;;;3.70;99.90;;;;;;4464988;27;655738;-70
2024/01/24 08:18:58;;;;;;;5.80;2.90;;;3.70;99.90;;;;;;4457162;28;655205;-71
2024/01/24 08:21:45;;;;;;;6.43;2.80;;;3.70;99.90;;;;;;4440212;28;655825;-70
2024/01/24 08:24:32;;;;;;;3.80;1.90;;;3.80;99.90;;;;;;4440210;28;655715;-71
2024/01/24 08:27:20;;;;;;;6.00;3.80;;;3.70;99.90;;;;;;4460392;28;655822;-70
2024/01/24 08:30:08;;;;;;;6.00;3.53;;;3.70;99.90;;;;;;4435630;28;655630;-70
2024/01/24 08:32:55;;;;;;;8.90;5.17;;;3.70;99.90;;;;;;4447059;28;655471;-70
2024/01/24 08:35:44;;;;;;;7.85;3.35;;;3.70;99.90;;;;;;4443125;28;655512;-70
2024/01/24 08:38:31;;;;;;;9.60;5.40;;;3.70;99.90;;;;;;4449052;28;655252;-70
2024/01/24 08:41:18;;;;;;;3.30;1.87;;;3.70;99.90;;;;;;4438595;28;655614;-71
2024/01/24 08:44:05;;;;;;;6.30;3.37;;;3.70;99.90;;;;;;4452948;28;655993;-70
2024/01/24 08:46:53;;;;;;;6.43;3.00;;;3.70;99.90;;;;;;4428084;28;655868;-71
2024/01/24 08:49:40;;;;;;;9.20;3.87;;;3.70;99.90;;;;;;4454785;28;656814;-71
2024/01/24 08:52:29;;;;;;;6.73;3.83;;;3.70;99.90;;;;;;4443339;28;656103;-71
2024/01/24 08:55:16;;;;;;;6.20;4.17;;;3.70;99.90;;;;;;4448674;28;655393;-71
2024/01/24 08:58:04;;;;;;;9.67;2.90;;;3.70;99.90;;;;;;4436647;27;655675;-71
2024/01/24 09:00:51;;;;;;;6.20;3.87;;;3.70;99.90;;;;;;4448770;28;656484;-71
2024/01/24 09:03:38;;;;;;;6.27;3.87;;;3.80;99.90;;;;;;4428789;28;655874;-71
2024/01/24 09:06:26;;;;;;;3.73;2.30;;;3.70;99.90;;;;;;4445446;28;657052;-71
2024/01/24 09:09:14;;;;;;;6.50;4.77;;;3.70;99.90;;;;;;4437279;28;655870;-71
2024/01/24 09:12:02;;;;;;;4.83;2.53;;;3.80;99.90;;;;;;4448608;28;655675;-72
2024/01/24 09:14:49;;;;;;;6.27;2.50;;;3.80;99.90;;;;;;4436252;28;655951;-72
2024/01/24 09:17:36;;;;;;;8.93;5.60;;;3.80;99.90;;;;;;4448518;28;656281;-72
2024/01/24 09:20:23;;;;;;;5.87;3.13;;;3.90;99.90;;;;;;4438297;28;655360;-72
2024/01/24 09:23:11;;;;;;;4.93;2.47;;;3.90;99.90;;;;;;4446625;28;656131;-72
2024/01/24 09:26:00;;;;;;;4.27;2.50;;;3.90;99.90;;;;;;4437835;28;655847;-72
2024/01/24 09:28:47;;;;;;;8.67;5.23;;;4.00;99.90;;;;;;4432867;28;655553;-72
2024/01/24 09:31:35;;;;;;;541.07;23.93;;;4.10;99.90;;;;;;4462621;28;655193;-72
2024/01/24 09:34:23;;;;;;;8.33;5.33;;;4.10;99.90;;;;;;4455860;28;659096;-74
2024/01/24 09:37:11;;;;;;;7.17;2.70;;;4.10;99.90;;;;;;4433702;28;655513;-74
2024/01/24 09:39:58;;;;;;;6.37;2.97;;;4.10;99.90;;;;;;4438406;28;655302;-74
2024/01/24 09:42:46;;;;;;;7.07;4.50;;;4.10;99.90;;;;;;4462879;28;656980;-76
2024/01/24 09:45:34;;;;;;;7.67;3.73;;;4.20;99.90;;;;;;4432268;28;655574;-75
2024/01/24 09:48:23;;;;;;;6.10;2.40;;;4.20;99.90;;;;;;4376580;28;655988;-78
2024/01/24 09:51:19;;;;;;;9.70;4.87;;;4.20;99.90;;;;;;4385220;28;656047;-80
2024/01/24 09:54:07;;;;;;;9.73;6.00;;;4.20;99.90;;;;;;4383286;28;656622;-82
2024/01/24 09:57:04;;;;;;;2.87;2.07;;;4.30;99.90;;;;;;4427184;28;656239;-79
2024/01/24 10:00:04;;;;;;;5.30;3.30;;;4.30;99.90;;;;;;4348252;28;656156;-81
2024/01/24 10:02:51;;;;;;;6.80;3.37;;;4.30;99.90;;;;;;4417681;28;655518;-77
2024/01/24 10:05:39;;;;;;;11.20;6.23;;;4.40;99.90;;;;;;4420281;28;655454;-78
2024/01/24 10:08:28;;;;;;;13.60;6.70;;;4.40;99.90;;;;;;4454044;28;656759;-80
2024/01/24 10:11:17;;;;;;;13.30;7.70;;;4.40;99.90;;;;;;4364018;28;656928;-79
2024/01/24 10:14:05;;;;;;;14.43;6.47;;;4.50;99.90;;;;;;4397827;28;656376;-78
2024/01/24 10:17:00;;;;;;;5.57;3.43;;;4.60;99.90;;;;;;4420721;28;656696;-78
2024/01/24 10:19:50;;;;;;;13.07;8.47;;;4.60;99.90;;;;;;4412811;28;655811;-78
2024/01/24 10:22:38;;;;;;;13.47;8.07;;;4.70;99.90;;;;;;4422034;28;656695;-78
2024/01/24 10:25:25;;;;;;;11.73;6.17;;;4.60;99.90;;;;;;4452962;28;656858;-78
2024/01/24 10:28:16;;;;;;;17.10;8.37;;;4.70;99.90;;;;;;4433624;28;656302;-77
2024/01/24 10:31:04;;;;;;;9.93;5.43;;;4.70;99.90;;;;;;4434439;28;656396;-78
2024/01/24 10:34:04;;;;;;;9.77;5.07;;;4.80;99.90;;;;;;4425123;27;655022;-82
2024/01/24 10:36:53;;;;;;;17.77;9.87;;;4.80;99.90;;;;;;4326485;28;655821;-80
2024/01/24 10:39:40;;;;;;;7.67;5.57;;;4.90;99.90;;;;;;4410370;28;657076;-78
2024/01/24 10:42:28;;;;;;;9.40;5.60;;;5.00;99.90;;;;;;4443103;27;655854;-78
2024/01/24 10:45:16;;;;;;;19.87;10.73;;;4.90;99.90;;;;;;4446109;28;656689;-78
2024/01/24 10:48:03;;;;;;;18.10;7.40;;;5.00;99.90;;;;;;4408029;28;657781;-77
2024/01/24 10:50:52;;;;;;;16.47;9.80;;;5.00;99.90;;;;;;4444316;28;657062;-78
2024/01/24 10:53:39;;;;;;;12.00;7.27;;;5.00;99.90;;;;;;4410957;28;656440;-78
2024/01/24 10:56:27;;;;;;;17.37;10.23;;;5.10;99.90;;;;;;4435450;28;656004;-78
2024/01/24 10:59:14;;;;;;;13.83;8.40;;;5.10;99.90;;;;;;4412912;28;657821;-77
2024/01/24 11:02:01;;;;;;;8.90;5.47;;;5.10;99.90;;;;;;4445707;28;656845;-78
2024/01/24 11:04:48;;;;;;;10.80;4.53;;;5.20;99.90;;;;;;4429323;28;655661;-77
2024/01/24 11:07:45;;;;;;;7.83;4.40;;;5.30;99.90;;;;;;4446532;28;657838;-77
2024/01/24 11:10:35;;;;;;;5.67;3.03;;;5.30;99.90;;;;;;4359127;28;656006;-80
2024/01/24 11:13:26;;;;;;;10.07;5.72;;;5.30;99.90;;;;;;4324757;28;655153;-82
2024/01/24 11:16:29;;;;;;;17.90;8.33;;;5.40;99.90;;;;;;4375917;28;657203;-78
2024/01/24 11:19:21;;;;;;;13.17;9.17;;;5.30;99.90;;;;;;4413532;28;656427;-77
2024/01/24 11:22:10;;;;;;;6.67;3.00;;;5.30;99.90;;;;;;4410232;28;657061;-77
2024/01/24 11:24:59;;;;;;;8.13;4.25;;;5.50;99.90;;;;;;4416185;28;655983;-77
2024/01/24 11:27:46;;;;;;;12.37;7.47;;;5.60;99.90;;;;;;4451656;28;655495;-77
2024/01/24 11:30:38;;;;;;;14.00;7.90;;;5.70;99.90;;;;;;4418012;28;657020;-77
2024/01/24 11:33:25;;;;;;;13.90;7.93;;;5.90;99.90;;;;;;4418626;28;657453;-77
2024/01/24 11:36:13;;;;;;;14.03;7.20;;;5.90;99.90;;;;;;4427830;28;656609;-77
2024/01/24 11:39:00;;;;;;;3.20;2.00;;;6.10;99.90;;;;;;4442283;28;656855;-76
2024/01/24 11:41:49;;;;;;;8.00;3.70;;;6.10;99.90;;;;;;4435491;28;655450;-76
2024/01/24 11:44:38;;;;;;;9.40;3.83;;;6.20;99.90;;;;;;4455558;28;655502;-76
2024/01/24 11:47:25;;;;;;;12.83;4.33;;;6.30;99.90;;;;;;4430490;28;656313;-76
2024/01/24 11:50:12;;;;;;;8.10;4.03;;;6.40;99.90;;;;;;4443937;28;656320;-76
2024/01/24 11:53:00;;;;;;;9.33;5.20;;;6.30;99.90;;;;;;4465562;28;656094;-76
2024/01/24 11:55:52;;;;;;;7.43;4.33;;;6.40;99.90;;;;;;4439013;28;656016;-75
2024/01/24 11:58:40;;;;;;;3.20;1.90;;;6.50;99.90;;;;;;4441567;28;655527;-75
2024/01/24 12:01:27;;;;;;;9.30;5.17;;;6.70;99.90;;;;;;4434183;28;656331;-76
2024/01/24 12:04:15;;;;;;;11.00;2.87;;;6.80;99.90;;;;;;4456993;28;654804;-75
2024/01/24 12:07:02;;;;;;;3.30;2.00;;;7.10;99.90;;;;;;4459102;28;656285;-74
2024/01/24 12:09:50;;;;;;;6.77;3.57;;;7.20;99.90;;;;;;4436756;28;655956;-74
2024/01/24 12:12:37;;;;;;;5.53;3.07;;;7.20;99.90;;;;;;4447888;28;655910;-75
2024/01/24 12:15:26;;;;;;;8.63;2.97;;;7.20;99.90;;;;;;4467537;28;655336;-74
2024/01/24 12:18:14;;;;;;;5.60;2.60;;;7.50;99.90;;;;;;4437039;28;655642;-74
2024/01/24 12:21:03;;;;;;;3.83;2.30;;;7.70;99.90;;;;;;4456439;28;655971;-73
2024/01/24 12:23:50;;;;;;;2.13;1.20;;;7.80;99.90;;;;;;4436410;28;655860;-73
2024/01/24 12:26:38;;;;;;;4.30;1.57;;;7.90;99.90;;;;;;4446627;28;656055;-73
2024/01/24 12:29:25;;;;;;;4.70;1.63;;;7.80;99.90;;;;;;4447079;28;656502;-74
2024/01/24 12:32:14;;;;;;;5.53;2.07;;;7.80;99.90;;;;;;4450885;28;655538;-74
2024/01/24 12:35:01;;;;;;;4.07;2.00;;;7.80;99.90;;;;;;4437695;28;655652;-73
2024/01/24 12:37:48;;;;;;;4.27;2.00;;;7.70;99.90;;;;;;4427452;28;655236;-72
2024/01/24 12:40:36;;;;;;;5.75;2.20;;;7.70;99.90;;;;;;4457460;28;656870;-72
2024/01/24 12:43:23;;;;;;;5.27;1.90;;;7.70;99.90;;;;;;4440462;27;655286;-72
2024/01/24 12:46:12;;;;;;;2.57;1.70;;;7.70;99.90;;;;;;4451249;28;656122;-71
2024/01/24 12:49:00;;;;;;;3.33;1.43;;;7.70;99.90;;;;;;4439322;28;655764;-72
2024/01/24 12:51:48;;;;;;;5.63;1.97;;;7.70;99.90;;;;;;4445933;28;655438;-72
2024/01/24 12:54:35;;;;;;;2.83;1.67;;;7.70;99.90;;;;;;4460220;28;656326;-71
2024/01/24 12:57:24;;;;;;;1.83;1.20;;;7.70;99.90;;;;;;4435302;28;655615;-71
2024/01/24 13:00:15;;;;;;;4.57;2.03;;;7.80;99.90;;;;;;4445787;28;655926;-71
2024/01/24 13:03:04;;;;;;;3.63;1.43;;;7.90;99.90;;;;;;4454247;28;655387;-71
2024/01/24 13:05:53;;;;;;;6.33;2.20;;;8.00;99.90;;;;;;4456776;28;654674;-70
2024/01/24 13:08:40;;;;;;;4.80;2.80;;;7.90;99.90;;;;;;4433042;28;655869;-71
2024/01/24 13:11:28;;;;;;;4.88;2.25;;;7.80;99.90;;;;;;4436545;28;656149;-71
2024/01/24 13:14:15;;;;;;;7.07;2.80;;;7.80;99.90;;;;;;4456891;28;656983;-71
2024/01/24 13:17:03;;;;;;;10.27;2.20;;;7.90;99.90;;;;;;4450023;28;655489;-71
2024/01/24 13:19:50;;;;;;;7.73;3.20;;;8.00;99.90;;;;;;4459432;28;656728;-72
2024/01/24 13:22:39;;;;;;;7.17;3.40;;;8.00;99.90;;;;;;4438953;28;656376;-71
2024/01/24 13:25:26;;;;;;;2.93;1.60;;;8.00;99.90;;;;;;4460333;28;655927;-71
2024/01/24 13:28:13;;;;;;;3.67;1.73;;;8.00;99.90;;;;;;4429709;28;655333;-71
2024/01/24 13:31:00;;;;;;;4.40;2.03;;;8.00;99.90;;;;;;4457958;28;656804;-70
2024/01/24 13:33:49;;;;;;;4.77;1.50;;;8.00;99.90;;;;;;4440800;28;655657;-71
2024/01/24 13:36:37;;;;;;;5.23;2.30;;;8.10;99.90;;;;;;4452851;28;655269;-72
2024/01/24 13:39:25;;;;;;;6.97;2.60;;;8.00;99.90;;;;;;4439403;28;656718;-71
2024/01/24 13:42:12;;;;;;;6.90;3.10;;;7.90;99.90;;;;;;4443161;28;655703;-71
2024/01/24 13:45:00;;;;;;;9.30;3.10;;;7.80;99.90;;;;;;4461708;28;656026;-71
2024/01/24 13:47:47;;;;;;;5.50;1.80;;;7.90;99.90;;;;;;4450524;28;655711;-71
2024/01/24 13:50:36;;;;;;;4.53;2.60;;;8.00;99.90;;;;;;4462250;28;655261;-71
2024/01/24 13:53:23;;;;;;;2.27;1.20;;;7.90;99.90;;;;;;4443310;28;655699;-71
2024/01/24 13:56:12;;;;;;;5.00;1.80;;;7.80;99.90;;;;;;4456931;28;656665;-71
2024/01/24 13:58:59;;;;;;;5.73;2.40;;;7.80;99.90;;;;;;4425189;28;656275;-71
2024/01/24 14:01:46;;;;;;;3.60;1.77;;;7.80;99.90;;;;;;4451542;28;655126;-71
2024/01/24 14:04:34;;;;;;;4.97;2.43;;;7.70;99.90;;;;;;4443010;28;655685;-72
2024/01/24 14:07:21;;;;;;;5.97;1.87;;;7.70;99.90;;;;;;4459845;28;655980;-71
2024/01/24 14:10:09;;;;;;;4.73;2.23;;;7.60;99.90;;;;;;4425006;28;655970;-71
2024/01/24 14:12:58;;;;;;;5.37;1.47;;;7.40;99.90;;;;;;4459221;28;656003;-70
2024/01/24 14:15:45;;;;;;;4.47;2.70;;;7.30;99.90;;;;;;4434471;28;655759;-72
2024/01/24 14:18:33;;;;;;;9.27;3.03;;;7.20;99.90;;;;;;4425268;28;655293;-73
2024/01/24 14:21:20;;;;;;;3.87;1.93;;;7.10;99.90;;;;;;4465207;28;655847;-72
2024/01/24 14:24:08;;;;;;;6.17;2.50;;;7.00;99.90;;;;;;4463270;28;655682;-73